Slipstream — ZCYI2 — position and weather

sailwx.info

Track history (hours):
 
Tides and Currents Weather Stations Pressure Air Temp Water Temp Dewpoint Dewpoint Depression Visibility Wind Speed Wind Dir Waves Ship Positions

Slipstream

Last reported at 2018-Jun-27 09:55 UTC. Time now 2018-Jul-20 12:04 UTC.
Position N 37°53' E 015°50'.
Warning: this ship's position is 23 days out of date.

Length 60 m; draft 3.5 m.

Type: Other ship. MMSI: 319005400.

Date/timePositionNaut miles runAvg speedWind from/ knotsBaromVisibWave heightAir tempDewpointWater temp
2018-Jun-27 09:55N 37°53' E 015°50'614.8
2018-Jun-27 09:30N 37°54' E 015°43'814.7
2018-Jun-27 09:00N 37°59' E 015°36'714.4
2018-Jun-27 08:29N 38°06' E 015°34'714.8
2018-Jun-27 08:00N 38°14' E 015°36'611.4
2018-Jun-27 07:30N 38°19' E 015°38'815.2
2018-Jun-27 06:59N 38°25' E 015°32'34512.8
2018-Jun-26 04:05N 42°33' E 010°17'313.2
2018-Jun-26 03:49N 42°35' E 010°14'513.2
2018-Jun-26 03:26N 42°39' E 010°09'2012.9
2018-Jun-26 01:51N 42°58' E 009°59'513.2
2018-Jun-26 01:30N 43°02' E 009°58'612.8
2018-Jun-26 01:00N 43°08' E 009°55'713.1
2018-Jun-26 00:30N 43°14' E 009°51'713.2
2018-Jun-26 00:00N 43°20' E 009°46'713.2
2018-Jun-25 23:30N 43°25' E 009°41'713.3
2018-Jun-25 23:00N 43°31' E 009°36'613.2
2018-Jun-25 22:30N 43°37' E 009°32'713.3
2018-Jun-25 22:00N 43°42' E 009°27'713.3
2018-Jun-25 21:30N 43°48' E 009°22'713.1
2018-Jun-25 21:00N 43°53' E 009°16'612.9
2018-Jun-25 20:30N 43°58' E 009°11'612.7
2018-Jun-25 20:00N 44°03' E 009°06'612.7
2018-Jun-25 19:30N 44°09' E 009°02'612.9
2018-Jun-25 19:00N 44°15' E 008°59'712.9
2018-Jun-25 18:30N 44°22' E 008°57'3 6.7
2018-Jun-25 18:00N 44°24' E 008°55'0 0.0
2018-Jun-25 17:30N 44°24' E 008°55'0 0.0
2018-Jun-25 17:00N 44°24' E 008°55'0 0.0
2018-Jun-25 16:30N 44°24' E 008°55'0 0.0
2018-Jun-25 16:00N 44°24' E 008°55'0 0.0
2018-Jun-25 15:30N 44°24' E 008°55'0 0.0
2018-Jun-25 15:00N 44°24' E 008°55'0 0.0
2018-Jun-25 14:30N 44°24' E 008°55'0 0.0
2018-Jun-25 14:00N 44°24' E 008°55'0 0.0
2018-Jun-25 13:30N 44°24' E 008°55'0 0.0
2018-Jun-25 13:00N 44°24' E 008°55'3 6.6
2018-Jun-25 12:31N 44°22' E 008°58'713.4
2018-Jun-25 12:01N 44°18' E 009°06'5 8.4
2018-Jun-25 11:24N 44°19' E 009°13'0 0.0
2018-Jun-25 10:54N 44°19' E 009°13'0 0.0
2018-Jun-25 10:21N 44°19' E 009°13'0 0.0
2018-Jun-25 09:21N 44°19' E 009°13'0 0.0
2018-Jun-25 08:57N 44°19' E 009°13'0 0.0
2018-Jun-25 08:30N 44°19' E 009°13'0 0.0
2018-Jun-25 07:42N 44°19' E 009°13'0 0.0
2018-Jun-25 06:09N 44°19' E 009°13'0 0.1
2018-Jun-25 06:00N 44°19' E 009°13'2 3.2
2018-Jun-25 05:30N 44°17' E 009°13'611.7
2018-Jun-25 05:00N 44°14' E 009°06'510.3
2018-Jun-25 04:30N 44°11' E 009°00'510.9
2018-Jun-25 04:00N 44°08' E 008°54'612.0
2018-Jun-25 03:30N 44°04' E 008°47'611.8
2018-Jun-25 03:00N 44°05' E 008°39'612.4
2018-Jun-25 02:30N 44°03' E 008°31'712.0
2018-Jun-25 01:55N 43°58' E 008°23'512.3
2018-Jun-25 01:30N 43°54' E 008°19'611.9
2018-Jun-25 01:00N 43°51' E 008°12'612.0
2018-Jun-25 00:30N 43°48' E 008°05'612.0
2018-Jun-25 00:00N 43°45' E 007°58'611.5
2018-Jun-24 23:30N 43°43' E 007°50'22 1.3
2018-Jun-24 06:15N 43°39' E 007°20'413.7
2018-Jun-24 05:59N 43°36' E 007°16'713.5
2018-Jun-24 05:29N 43°32' E 007°09'3 0.3
2018-Jun-23 16:37N 43°33' E 007°05'112.2
2018-Jun-23 16:30N 43°32' E 007°03'0 0.7
2018-Jun-23 15:59N 43°32' E 007°03'0 0.0
2018-Jun-23 15:29N 43°32' E 007°03'0 0.0
2018-Jun-23 14:59N 43°32' E 007°03'0 0.0
2018-Jun-23 14:26N 43°32' E 007°03'0 0.1
2018-Jun-23 13:56N 43°32' E 007°03'0 0.0
2018-Jun-23 13:26N 43°32' E 007°03'0 0.0
2018-Jun-23 12:59N 43°32' E 007°03'0 0.0
2018-Jun-23 12:29N 43°32' E 007°03'0 0.0
2018-Jun-23 11:59N 43°32' E 007°03'0 0.0
2018-Jun-23 11:30N 43°32' E 007°03'3 0.1
2018-Jun-22 13:25N 43°33' E 007°06'410.1
2018-Jun-22 13:00N 43°30' E 007°02'3 5.6
2018-Jun-22 12:28N 43°33' E 007°01'0 0.0
2018-Jun-22 11:43N 43°33' E 007°01'0 0.0
2018-Jun-22 11:28N 43°33' E 007°01'0 0.0
2018-Jun-22 10:49N 43°33' E 007°01'0 0.0
2018-Jun-22 10:19N 43°33' E 007°01'0 0.0
2018-Jun-22 09:58N 43°33' E 007°01'0 0.0
2018-Jun-22 09:19N 43°33' E 007°01'0 0.0
2018-Jun-22 08:49N 43°33' E 007°01'0 0.0
2018-Jun-22 08:19N 43°33' E 007°01'0 0.0
2018-Jun-22 07:49N 43°33' E 007°01'0 0.0
2018-Jun-22 07:16N 43°33' E 007°01'0 0.0
2018-Jun-22 06:52N 43°33' E 007°01'0 0.0
2018-Jun-22 06:22N 43°33' E 007°01'0 0.0
2018-Jun-22 05:52N 43°33' E 007°01'0 0.0
2018-Jun-22 05:22N 43°33' E 007°01'0 0.0
2018-Jun-22 04:10N 43°33' E 007°01'0 0.0
2018-Jun-22 03:52N 43°33' E 007°01'0 0.0
2018-Jun-22 03:25N 43°33' E 007°01'0 0.0
2018-Jun-22 02:55N 43°33' E 007°01'0 0.0
2018-Jun-22 01:40N 43°33' E 007°01'0 0.0
2018-Jun-22 01:28N 43°33' E 007°01'0 0.0
2018-Jun-22 00:10N 43°33' E 007°01'0 0.0
2018-Jun-21 23:55N 43°33' E 007°01'0 0.0
2018-Jun-21 23:28N 43°33' E 007°01'0 0.0
2018-Jun-21 22:43N 43°33' E 007°01'0 0.0
2018-Jun-21 22:16N 43°33' E 007°01'0 0.0
2018-Jun-21 21:46N 43°33' E 007°01'0 0.0
2018-Jun-21 21:28N 43°33' E 007°01'0 0.0
2018-Jun-21 20:58N 43°33' E 007°01'0 0.0
2018-Jun-21 20:13N 43°33' E 007°01'0 0.0
2018-Jun-21 19:49N 43°33' E 007°01'0 0.0
2018-Jun-21 19:19N 43°33' E 007°01'0 0.0
2018-Jun-21 18:49N 43°33' E 007°01'0 0.0
2018-Jun-21 18:19N 43°33' E 007°01'0 0.0
2018-Jun-21 17:52N 43°33' E 007°01'0 0.0
2018-Jun-21 17:30N 43°33' E 007°01'0 0.1
2018-Jun-21 17:00N 43°33' E 007°01'4 7.6
2018-Jun-21 16:30N 43°30' E 007°04'3 1.4
2018-Jun-21 14:00N 43°33' E 007°06'0 0.0
2018-Jun-21 13:30N 43°33' E 007°06'0 0.0
2018-Jun-21 13:00N 43°33' E 007°06'0 0.0
2018-Jun-21 12:24N 43°33' E 007°06'0 0.0
2018-Jun-21 11:54N 43°33' E 007°06'0 0.0
2018-Jun-21 11:27N 43°33' E 007°06'0 0.0
2018-Jun-21 11:00N 43°33' E 007°06'0 0.0
2018-Jun-21 02:45N 43°33' E 007°06'0 0.0
2018-Jun-21 02:27N 43°33' E 007°06'0 0.0
2018-Jun-21 01:03N 43°33' E 007°06'0 0.1
2018-Jun-21 01:00N 43°33' E 007°06'0 0.0
2018-Jun-21 00:24N 43°33' E 007°06'0 0.0
2018-Jun-21 00:00N 43°33' E 007°06'0 0.0
2018-Jun-20 23:30N 43°33' E 007°06'0 0.0
2018-Jun-20 22:21N 43°33' E 007°06'0 0.0
2018-Jun-20 21:51N 43°33' E 007°06'0 0.0
2018-Jun-20 21:21N 43°33' E 007°06'0 0.0
2018-Jun-20 20:51N 43°33' E 007°06'0 0.4
2018-Jun-20 19:27N 43°32' E 007°07'614.0
2018-Jun-20 19:00N 43°28' E 007°01'19 0.6
2018-Jun-19 13:05N 43°18' E 006°39'113.5
2018-Jun-19 13:00N 43°18' E 006°41'713.7
2018-Jun-19 12:30N 43°22' E 006°48'713.5
2018-Jun-19 12:01N 43°26' E 006°56'4 8.5
2018-Jun-19 11:31N 43°29' E 006°59'4 7.6
2018-Jun-19 11:01N 43°33' E 007°01'0 0.2
2018-Jun-19 10:26N 43°33' E 007°01'0 0.0
2018-Jun-19 09:59N 43°33' E 007°01'0 0.0
2018-Jun-19 09:14N 43°33' E 007°01'0 0.0
2018-Jun-19 08:59N 43°33' E 007°01'0 0.0
2018-Jun-19 08:29N 43°33' E 007°01'0 0.0
2018-Jun-19 07:59N 43°33' E 007°01'0 0.0
2018-Jun-19 07:29N 43°33' E 007°01'0 0.0
2018-Jun-19 06:47N 43°33' E 007°01'0 0.0
2018-Jun-19 06:17N 43°33' E 007°01'0 0.0
2018-Jun-19 05:47N 43°33' E 007°01'0 0.0
2018-Jun-19 05:20N 43°33' E 007°01'0 0.0
2018-Jun-19 04:50N 43°33' E 007°01'0 0.0
2018-Jun-19 04:23N 43°33' E 007°01'0 0.0
2018-Jun-19 03:35N 43°33' E 007°01'0 0.0
2018-Jun-19 03:23N 43°33' E 007°01'0 0.0
2018-Jun-19 02:56N 43°33' E 007°01'0 0.0
2018-Jun-19 02:23N 43°33' E 007°01'0 0.0
2018-Jun-19 01:56N 43°33' E 007°01'0 0.0
2018-Jun-19 00:53N 43°33' E 007°01'0 0.0
2018-Jun-19 00:26N 43°33' E 007°01'0 0.0
2018-Jun-18 23:59N 43°33' E 007°01'0 0.0
2018-Jun-18 23:29N 43°33' E 007°01'0 0.0
2018-Jun-18 22:59N 43°33' E 007°01'0 0.0
2018-Jun-18 22:29N 43°33' E 007°01'0 0.0
2018-Jun-18 21:59N 43°33' E 007°01'0 0.0
2018-Jun-18 21:29N 43°33' E 007°01'0 0.0
2018-Jun-18 20:59N 43°33' E 007°01'0 0.0
2018-Jun-18 20:29N 43°33' E 007°01'0 0.0
2018-Jun-18 19:59N 43°33' E 007°01'0 0.0
2018-Jun-18 19:29N 43°33' E 007°01'0 0.0
2018-Jun-18 18:59N 43°33' E 007°01'0 0.0
2018-Jun-18 18:29N 43°33' E 007°01'0 0.0
2018-Jun-18 17:59N 43°33' E 007°01'0 0.0
2018-Jun-18 17:29N 43°33' E 007°01'0 0.0
2018-Jun-18 16:50N 43°33' E 007°01'0 0.0
2018-Jun-18 16:05N 43°33' E 007°01'0 0.0
2018-Jun-18 15:50N 43°33' E 007°01'0 0.0
2018-Jun-18 15:20N 43°33' E 007°01'0 0.0
2018-Jun-18 14:53N 43°33' E 007°01'0 0.0
2018-Jun-18 14:23N 43°33' E 007°01'0 0.0
2018-Jun-18 13:50N 43°33' E 007°01'0 0.0
2018-Jun-18 13:23N 43°33' E 007°01'0 0.0
2018-Jun-18 12:53N 43°33' E 007°01'0 0.0
2018-Jun-18 12:26N 43°33' E 007°01'0 0.0
2018-Jun-18 11:11N 43°33' E 007°01'0 0.0
2018-Jun-18 10:56N 43°33' E 007°01'0 0.0
2018-Jun-18 09:53N 43°33' E 007°01'0 0.0
2018-Jun-18 09:26N 43°33' E 007°01'0 0.0
2018-Jun-18 08:59N 43°33' E 007°01'0 0.0
2018-Jun-18 08:29N 43°33' E 007°01'0 0.0
2018-Jun-18 07:56N 43°33' E 007°01'0 0.0
2018-Jun-18 05:47N 43°33' E 007°01'0 0.0
2018-Jun-18 05:29N 43°33' E 007°01'0 0.0
2018-Jun-18 04:59N 43°33' E 007°01'0 0.0
2018-Jun-18 04:29N 43°33' E 007°01'0 0.0
2018-Jun-18 03:59N 43°33' E 007°01'0 0.0
2018-Jun-18 03:29N 43°33' E 007°01'0 0.0
2018-Jun-18 02:59N 43°33' E 007°01'0 0.0
2018-Jun-18 02:20N 43°33' E 007°01'0 0.0
2018-Jun-18 01:50N 43°33' E 007°01'0 0.0
2018-Jun-18 01:23N 43°33' E 007°01'0 0.0
2018-Jun-18 00:53N 43°33' E 007°01'0 0.0
2018-Jun-18 00:23N 43°33' E 007°01'0 0.0
2018-Jun-17 23:53N 43°33' E 007°01'0 0.0
2018-Jun-17 23:23N 43°33' E 007°01'0 0.0
2018-Jun-17 22:53N 43°33' E 007°01'0 0.0
2018-Jun-17 22:26N 43°33' E 007°01'0 0.0
2018-Jun-17 21:53N 43°33' E 007°01'0 0.0
2018-Jun-17 21:26N 43°33' E 007°01'0 0.0
2018-Jun-17 20:56N 43°33' E 007°01'0 0.0
2018-Jun-17 20:23N 43°33' E 007°01'0 0.0
2018-Jun-17 19:56N 43°33' E 007°01'0 0.0
2018-Jun-17 19:29N 43°33' E 007°01'0 0.0
2018-Jun-17 18:56N 43°33' E 007°01'0 0.0
2018-Jun-17 18:29N 43°33' E 007°01'0 0.0
2018-Jun-17 16:17N 43°33' E 007°01'0 0.0
2018-Jun-17 15:59N 43°33' E 007°01'0 0.0
2018-Jun-17 15:29N 43°33' E 007°01'0 0.0
2018-Jun-17 14:59N 43°33' E 007°01'0 0.0
2018-Jun-17 13:50N 43°33' E 007°01'0 0.0
2018-Jun-17 13:20N 43°33' E 007°01'0 0.0
2018-Jun-17 12:50N 43°33' E 007°01'0 0.0
2018-Jun-17 12:20N 43°33' E 007°01'0 0.0
2018-Jun-17 11:50N 43°33' E 007°01'0 0.0
2018-Jun-17 11:20N 43°33' E 007°01'0 0.0
2018-Jun-17 10:53N 43°33' E 007°01'0 0.0
2018-Jun-17 10:23N 43°33' E 007°01'  
Track history (hours):
 
Tides and Currents Weather Stations Pressure Air Temp Water Temp Dewpoint Dewpoint Depression Visibility Wind Speed Wind Dir Waves Ship Positions

Slipstream

Last reported at 2018-Jun-27 09:55 UTC. Time now 2018-Jul-20 12:04 UTC.
Position N 37°53' E 015°50'.
Warning: this ship's position is 23 days out of date.

Length 60 m; draft 3.5 m.

Type: Other ship. MMSI: 319005400.

Date/timePositionNaut miles runAvg speedWind from/ knotsBaromVisibWave heightAir tempDewpointWater temp
2018-Jun-27 09:55N 37°53' E 015°50'614.8
2018-Jun-27 09:30N 37°54' E 015°43'814.7
2018-Jun-27 09:00N 37°59' E 015°36'714.4
2018-Jun-27 08:29N 38°06' E 015°34'714.8
2018-Jun-27 08:00N 38°14' E 015°36'611.4
2018-Jun-27 07:30N 38°19' E 015°38'815.2
2018-Jun-27 06:59N 38°25' E 015°32'34512.8
2018-Jun-26 04:05N 42°33' E 010°17'313.2
2018-Jun-26 03:49N 42°35' E 010°14'513.2
2018-Jun-26 03:26N 42°39' E 010°09'2012.9
2018-Jun-26 01:51N 42°58' E 009°59'513.2
2018-Jun-26 01:30N 43°02' E 009°58'612.8
2018-Jun-26 01:00N 43°08' E 009°55'713.1
2018-Jun-26 00:30N 43°14' E 009°51'713.2
2018-Jun-26 00:00N 43°20' E 009°46'713.2
2018-Jun-25 23:30N 43°25' E 009°41'713.3
2018-Jun-25 23:00N 43°31' E 009°36'613.2
2018-Jun-25 22:30N 43°37' E 009°32'713.3
2018-Jun-25 22:00N 43°42' E 009°27'713.3
2018-Jun-25 21:30N 43°48' E 009°22'713.1
2018-Jun-25 21:00N 43°53' E 009°16'612.9
2018-Jun-25 20:30N 43°58' E 009°11'612.7
2018-Jun-25 20:00N 44°03' E 009°06'612.7
2018-Jun-25 19:30N 44°09' E 009°02'612.9
2018-Jun-25 19:00N 44°15' E 008°59'712.9
2018-Jun-25 18:30N 44°22' E 008°57'3 6.7
2018-Jun-25 18:00N 44°24' E 008°55'0 0.0
2018-Jun-25 17:30N 44°24' E 008°55'0 0.0
2018-Jun-25 17:00N 44°24' E 008°55'0 0.0
2018-Jun-25 16:30N 44°24' E 008°55'0 0.0
2018-Jun-25 16:00N 44°24' E 008°55'0 0.0
2018-Jun-25 15:30N 44°24' E 008°55'0 0.0
2018-Jun-25 15:00N 44°24' E 008°55'0 0.0
2018-Jun-25 14:30N 44°24' E 008°55'0 0.0
2018-Jun-25 14:00N 44°24' E 008°55'0 0.0
2018-Jun-25 13:30N 44°24' E 008°55'0 0.0
2018-Jun-25 13:00N 44°24' E 008°55'3 6.6
2018-Jun-25 12:31N 44°22' E 008°58'713.4
2018-Jun-25 12:01N 44°18' E 009°06'5 8.4
2018-Jun-25 11:24N 44°19' E 009°13'0 0.0
2018-Jun-25 10:54N 44°19' E 009°13'0 0.0
2018-Jun-25 10:21N 44°19' E 009°13'0 0.0
2018-Jun-25 09:21N 44°19' E 009°13'0 0.0
2018-Jun-25 08:57N 44°19' E 009°13'0 0.0
2018-Jun-25 08:30N 44°19' E 009°13'0 0.0
2018-Jun-25 07:42N 44°19' E 009°13'0 0.0
2018-Jun-25 06:09N 44°19' E 009°13'0 0.1
2018-Jun-25 06:00N 44°19' E 009°13'2 3.2
2018-Jun-25 05:30N 44°17' E 009°13'611.7
2018-Jun-25 05:00N 44°14' E 009°06'510.3
2018-Jun-25 04:30N 44°11' E 009°00'510.9
2018-Jun-25 04:00N 44°08' E 008°54'612.0
2018-Jun-25 03:30N 44°04' E 008°47'611.8
2018-Jun-25 03:00N 44°05' E 008°39'612.4
2018-Jun-25 02:30N 44°03' E 008°31'712.0
2018-Jun-25 01:55N 43°58' E 008°23'512.3
2018-Jun-25 01:30N 43°54' E 008°19'611.9
2018-Jun-25 01:00N 43°51' E 008°12'612.0
2018-Jun-25 00:30N 43°48' E 008°05'612.0
2018-Jun-25 00:00N 43°45' E 007°58'611.5
2018-Jun-24 23:30N 43°43' E 007°50'22 1.3
2018-Jun-24 06:15N 43°39' E 007°20'413.7
2018-Jun-24 05:59N 43°36' E 007°16'713.5
2018-Jun-24 05:29N 43°32' E 007°09'3 0.3
2018-Jun-23 16:37N 43°33' E 007°05'112.2
2018-Jun-23 16:30N 43°32' E 007°03'0 0.7
2018-Jun-23 15:59N 43°32' E 007°03'0 0.0
2018-Jun-23 15:29N 43°32' E 007°03'0 0.0
2018-Jun-23 14:59N 43°32' E 007°03'0 0.0
2018-Jun-23 14:26N 43°32' E 007°03'0 0.1
2018-Jun-23 13:56N 43°32' E 007°03'0 0.0
2018-Jun-23 13:26N 43°32' E 007°03'0 0.0
2018-Jun-23 12:59N 43°32' E 007°03'0 0.0
2018-Jun-23 12:29N 43°32' E 007°03'0 0.0
2018-Jun-23 11:59N 43°32' E 007°03'0 0.0
2018-Jun-23 11:30N 43°32' E 007°03'3 0.1
2018-Jun-22 13:25N 43°33' E 007°06'410.1
2018-Jun-22 13:00N 43°30' E 007°02'3 5.6
2018-Jun-22 12:28N 43°33' E 007°01'0 0.0
2018-Jun-22 11:43N 43°33' E 007°01'0 0.0
2018-Jun-22 11:28N 43°33' E 007°01'0 0.0
2018-Jun-22 10:49N 43°33' E 007°01'0 0.0
2018-Jun-22 10:19N 43°33' E 007°01'0 0.0
2018-Jun-22 09:58N 43°33' E 007°01'0 0.0
2018-Jun-22 09:19N 43°33' E 007°01'0 0.0
2018-Jun-22 08:49N 43°33' E 007°01'0 0.0
2018-Jun-22 08:19N 43°33' E 007°01'0 0.0
2018-Jun-22 07:49N 43°33' E 007°01'0 0.0
2018-Jun-22 07:16N 43°33' E 007°01'0 0.0
2018-Jun-22 06:52N 43°33' E 007°01'0 0.0
2018-Jun-22 06:22N 43°33' E 007°01'0 0.0
2018-Jun-22 05:52N 43°33' E 007°01'0 0.0
2018-Jun-22 05:22N 43°33' E 007°01'0 0.0
2018-Jun-22 04:10N 43°33' E 007°01'0 0.0
2018-Jun-22 03:52N 43°33' E 007°01'0 0.0
2018-Jun-22 03:25N 43°33' E 007°01'0 0.0
2018-Jun-22 02:55N 43°33' E 007°01'0 0.0
2018-Jun-22 01:40N 43°33' E 007°01'0 0.0
2018-Jun-22 01:28N 43°33' E 007°01'0 0.0
2018-Jun-22 00:10N 43°33' E 007°01'0 0.0
2018-Jun-21 23:55N 43°33' E 007°01'0 0.0
2018-Jun-21 23:28N 43°33' E 007°01'0 0.0
2018-Jun-21 22:43N 43°33' E 007°01'0 0.0
2018-Jun-21 22:16N 43°33' E 007°01'0 0.0
2018-Jun-21 21:46N 43°33' E 007°01'0 0.0
2018-Jun-21 21:28N 43°33' E 007°01'0 0.0
2018-Jun-21 20:58N 43°33' E 007°01'0 0.0
2018-Jun-21 20:13N 43°33' E 007°01'0 0.0
2018-Jun-21 19:49N 43°33' E 007°01'0 0.0
2018-Jun-21 19:19N 43°33' E 007°01'0 0.0
2018-Jun-21 18:49N 43°33' E 007°01'0 0.0
2018-Jun-21 18:19N 43°33' E 007°01'0 0.0
2018-Jun-21 17:52N 43°33' E 007°01'0 0.0
2018-Jun-21 17:30N 43°33' E 007°01'0 0.1
2018-Jun-21 17:00N 43°33' E 007°01'4 7.6
2018-Jun-21 16:30N 43°30' E 007°04'3 1.4
2018-Jun-21 14:00N 43°33' E 007°06'0 0.0
2018-Jun-21 13:30N 43°33' E 007°06'0 0.0
2018-Jun-21 13:00N 43°33' E 007°06'0 0.0
2018-Jun-21 12:24N 43°33' E 007°06'0 0.0
2018-Jun-21 11:54N 43°33' E 007°06'0 0.0
2018-Jun-21 11:27N 43°33' E 007°06'0 0.0
2018-Jun-21 11:00N 43°33' E 007°06'0 0.0
2018-Jun-21 02:45N 43°33' E 007°06'0 0.0
2018-Jun-21 02:27N 43°33' E 007°06'0 0.0
2018-Jun-21 01:03N 43°33' E 007°06'0 0.1
2018-Jun-21 01:00N 43°33' E 007°06'0 0.0
2018-Jun-21 00:24N 43°33' E 007°06'0 0.0
2018-Jun-21 00:00N 43°33' E 007°06'0 0.0
2018-Jun-20 23:30N 43°33' E 007°06'0 0.0
2018-Jun-20 22:21N 43°33' E 007°06'0 0.0
2018-Jun-20 21:51N 43°33' E 007°06'0 0.0
2018-Jun-20 21:21N 43°33' E 007°06'0 0.0
2018-Jun-20 20:51N 43°33' E 007°06'0 0.4
2018-Jun-20 19:27N 43°32' E 007°07'614.0
2018-Jun-20 19:00N 43°28' E 007°01'19 0.6
2018-Jun-19 13:05N 43°18' E 006°39'113.5
2018-Jun-19 13:00N 43°18' E 006°41'713.7
2018-Jun-19 12:30N 43°22' E 006°48'713.5
2018-Jun-19 12:01N 43°26' E 006°56'4 8.5
2018-Jun-19 11:31N 43°29' E 006°59'4 7.6
2018-Jun-19 11:01N 43°33' E 007°01'0 0.2
2018-Jun-19 10:26N 43°33' E 007°01'0 0.0
2018-Jun-19 09:59N 43°33' E 007°01'0 0.0
2018-Jun-19 09:14N 43°33' E 007°01'0 0.0
2018-Jun-19 08:59N 43°33' E 007°01'0 0.0
2018-Jun-19 08:29N 43°33' E 007°01'0 0.0
2018-Jun-19 07:59N 43°33' E 007°01'0 0.0
2018-Jun-19 07:29N 43°33' E 007°01'0 0.0
2018-Jun-19 06:47N 43°33' E 007°01'0 0.0
2018-Jun-19 06:17N 43°33' E 007°01'0 0.0
2018-Jun-19 05:47N 43°33' E 007°01'0 0.0
2018-Jun-19 05:20N 43°33' E 007°01'0 0.0
2018-Jun-19 04:50N 43°33' E 007°01'0 0.0
2018-Jun-19 04:23N 43°33' E 007°01'0 0.0
2018-Jun-19 03:35N 43°33' E 007°01'0 0.0
2018-Jun-19 03:23N 43°33' E 007°01'0 0.0
2018-Jun-19 02:56N 43°33' E 007°01'0 0.0
2018-Jun-19 02:23N 43°33' E 007°01'0 0.0
2018-Jun-19 01:56N 43°33' E 007°01'0 0.0
2018-Jun-19 00:53N 43°33' E 007°01'0 0.0
2018-Jun-19 00:26N 43°33' E 007°01'0 0.0
2018-Jun-18 23:59N 43°33' E 007°01'0 0.0
2018-Jun-18 23:29N 43°33' E 007°01'0 0.0
2018-Jun-18 22:59N 43°33' E 007°01'0 0.0
2018-Jun-18 22:29N 43°33' E 007°01'0 0.0
2018-Jun-18 21:59N 43°33' E 007°01'0 0.0
2018-Jun-18 21:29N 43°33' E 007°01'0 0.0
2018-Jun-18 20:59N 43°33' E 007°01'0 0.0
2018-Jun-18 20:29N 43°33' E 007°01'0 0.0
2018-Jun-18 19:59N 43°33' E 007°01'0 0.0
2018-Jun-18 19:29N 43°33' E 007°01'0 0.0
2018-Jun-18 18:59N 43°33' E 007°01'0 0.0
2018-Jun-18 18:29N 43°33' E 007°01'0 0.0
2018-Jun-18 17:59N 43°33' E 007°01'0 0.0
2018-Jun-18 17:29N 43°33' E 007°01'0 0.0
2018-Jun-18 16:50N 43°33' E 007°01'0 0.0
2018-Jun-18 16:05N 43°33' E 007°01'0 0.0
2018-Jun-18 15:50N 43°33' E 007°01'0 0.0
2018-Jun-18 15:20N 43°33' E 007°01'0 0.0
2018-Jun-18 14:53N 43°33' E 007°01'0 0.0
2018-Jun-18 14:23N 43°33' E 007°01'0 0.0
2018-Jun-18 13:50N 43°33' E 007°01'0 0.0
2018-Jun-18 13:23N 43°33' E 007°01'0 0.0
2018-Jun-18 12:53N 43°33' E 007°01'0 0.0
2018-Jun-18 12:26N 43°33' E 007°01'0 0.0
2018-Jun-18 11:11N 43°33' E 007°01'0 0.0
2018-Jun-18 10:56N 43°33' E 007°01'0 0.0
2018-Jun-18 09:53N 43°33' E 007°01'0 0.0
2018-Jun-18 09:26N 43°33' E 007°01'0 0.0
2018-Jun-18 08:59N 43°33' E 007°01'0 0.0
2018-Jun-18 08:29N 43°33' E 007°01'0 0.0
2018-Jun-18 07:56N 43°33' E 007°01'0 0.0
2018-Jun-18 05:47N 43°33' E 007°01'0 0.0
2018-Jun-18 05:29N 43°33' E 007°01'0 0.0
2018-Jun-18 04:59N 43°33' E 007°01'0 0.0
2018-Jun-18 04:29N 43°33' E 007°01'0 0.0
2018-Jun-18 03:59N 43°33' E 007°01'0 0.0
2018-Jun-18 03:29N 43°33' E 007°01'0 0.0
2018-Jun-18 02:59N 43°33' E 007°01'0 0.0
2018-Jun-18 02:20N 43°33' E 007°01'0 0.0
2018-Jun-18 01:50N 43°33' E 007°01'0 0.0
2018-Jun-18 01:23N 43°33' E 007°01'0 0.0
2018-Jun-18 00:53N 43°33' E 007°01'0 0.0
2018-Jun-18 00:23N 43°33' E 007°01'0 0.0
2018-Jun-17 23:53N 43°33' E 007°01'0 0.0
2018-Jun-17 23:23N 43°33' E 007°01'0 0.0
2018-Jun-17 22:53N 43°33' E 007°01'0 0.0
2018-Jun-17 22:26N 43°33' E 007°01'0 0.0
2018-Jun-17 21:53N 43°33' E 007°01'0 0.0
2018-Jun-17 21:26N 43°33' E 007°01'0 0.0
2018-Jun-17 20:56N 43°33' E 007°01'0 0.0
2018-Jun-17 20:23N 43°33' E 007°01'0 0.0
2018-Jun-17 19:56N 43°33' E 007°01'0 0.0
2018-Jun-17 19:29N 43°33' E 007°01'0 0.0
2018-Jun-17 18:56N 43°33' E 007°01'0 0.0
2018-Jun-17 18:29N 43°33' E 007°01'0 0.0
2018-Jun-17 16:17N 43°33' E 007°01'0 0.0
2018-Jun-17 15:59N 43°33' E 007°01'0 0.0
2018-Jun-17 15:29N 43°33' E 007°01'0 0.0
2018-Jun-17 14:59N 43°33' E 007°01'0 0.0
2018-Jun-17 13:50N 43°33' E 007°01'0 0.0
2018-Jun-17 13:20N 43°33' E 007°01'0 0.0
2018-Jun-17 12:50N 43°33' E 007°01'0 0.0
2018-Jun-17 12:20N 43°33' E 007°01'0 0.0
2018-Jun-17 11:50N 43°33' E 007°01'0 0.0
2018-Jun-17 11:20N 43°33' E 007°01'0 0.0
2018-Jun-17 10:53N 43°33' E 007°01'0 0.0
2018-Jun-17 10:23N 43°33' E 007°01'  

Dump ship's entire track history